Terminal Aerodrome Forecast
Issued by NWS

Home | Current Version | Previous Version | Text Only | Print | Product List | Glossary On
Versions: 1 2 3 4 5 6 7 8 9 10 11 12 13 14 15 16 17 18 19 20 21 22 23 24 25
000
FTUS45 KFGZ 280000 AAA
TAFSEZ
TAF AMD
KSEZ 280059Z 2801/2824 VRB10G20KT P6SM VCTS BKN080CB BKN100
      TEMPO 2801/2804 VRB20G35KT 4SM -TSRA BKN070CB
     FM281200 VRB05KT P6SM BKN200
     FM282000 21007KT P6SM BKN080 BKN120
      TEMPO 2820/2824 5SM -TSRA BKN080CB=

USA.gov is the U.S. government's official web portal to all federal, state and local government web resources and services.